Archival Weather

Chicago O'Hare International

Chicago, Illinois (KORD)

Report from: Friday, December 23, 2022 4:51 AM CST
Current time: Monday, June 17, 2024 3:01 AM CDT

Current weather – Weather history – Daily summaries
Weather forecast

Present weatherBlowing snow
Temperature-22.2°C (-8.0°F)
Wind chill-36.9°C (-34.4°F)
Dew point-27.2°C (-17.0°F)
Winds 21 kts (10.8 m/s, 24.2 mph) West (280°)
Wind gusts 35 kts (18 m/s, 40.3 mph)
Peak wind 35 kts (18 m/s, 40.3 mph) West (270°) at 10:50
Visibility5 mi. (8 km)
Clouds Ceiling: Overcast 2,000 ft. (610 m)
Altimeter29.82 in.Hg (1010 mB)
Relative humidity64 %
Density altitude-4,719 ft. (-1,438 m)
Sea-level pressure101.2 kPa (1012 mB, 29.88 in.Hg)
Remarks System requires maintenance
Automated weather observing station with precipitation discriminator
Flight conditions Marginal Visual Meteorological Conditions
Raw dataKORD 231051Z 28021G35KT 5SM BLSN OVC020 M22/M27 A2982 RMK AO2 PK WND 27035/1050 SLP117 T12221272 $
An error has occurred. This application may no longer respond until reloaded. Reload 🗙